createdAt,value
2017-11-26T00:00:37.467Z,970.53
2017-11-26T00:01:37.455Z,970.53
2017-11-26T00:02:37.448Z,970.52
2017-11-26T00:03:37.446Z,970.54
2017-11-26T00:04:37.428Z,970.58
2017-11-26T00:05:37.419Z,970.57
2017-11-26T00:06:37.409Z,970.57
2017-11-26T00:07:37.401Z,970.58
2017-11-26T00:08:37.391Z,970.58
2017-11-26T00:09:37.382Z,970.59
2017-11-26T00:10:37.371Z,970.6
2017-11-26T00:11:37.362Z,970.61
2017-11-26T00:12:37.351Z,970.65
2017-11-26T00:13:37.344Z,970.7
2017-11-26T00:14:37.333Z,970.69
2017-11-26T00:15:37.325Z,970.73
2017-11-26T00:16:37.316Z,970.75
2017-11-26T00:17:37.305Z,970.76
2017-11-26T00:18:37.295Z,970.81
2017-11-26T00:19:37.286Z,970.85
2017-11-26T00:20:37.279Z,970.82
2017-11-26T00:21:37.369Z,970.88
2017-11-26T00:22:37.260Z,970.87
2017-11-26T00:23:37.249Z,970.89
2017-11-26T00:24:37.241Z,970.91
2017-11-26T00:25:37.231Z,970.91
2017-11-26T00:26:37.222Z,970.95
2017-11-26T00:27:37.212Z,970.94
2017-11-26T00:28:37.203Z,970.9
2017-11-26T00:29:37.194Z,970.93
2017-11-26T00:30:37.183Z,970.92
2017-11-26T00:31:37.175Z,970.96
2017-11-26T00:32:37.165Z,970.96
2017-11-26T00:33:37.257Z,971
2017-11-26T00:34:37.145Z,970.96
2017-11-26T00:35:37.137Z,970.95
2017-11-26T00:36:37.128Z,970.99
2017-11-26T00:37:37.117Z,971.01
2017-11-26T00:38:37.108Z,971.02
2017-11-26T00:39:37.099Z,971.03
2017-11-26T00:40:37.091Z,971.07
2017-11-26T00:41:37.079Z,971.07
2017-11-26T00:42:37.071Z,971.06
2017-11-26T00:43:37.061Z,971.07
2017-11-26T00:44:37.056Z,971.11
2017-11-26T00:45:37.041Z,971.12
2017-11-26T00:46:37.033Z,971.1
2017-11-26T00:47:37.024Z,971.15
2017-11-26T00:48:37.014Z,971.16
2017-11-26T00:49:37.011Z,971.22
2017-11-26T00:50:36.996Z,971.23
2017-11-26T00:51:36.987Z,971.25
2017-11-26T00:52:36.975Z,971.27
2017-11-26T00:53:36.966Z,971.26
2017-11-26T00:54:36.958Z,971.28
2017-11-26T00:55:36.948Z,971.29
2017-11-26T00:56:36.939Z,971.28
2017-11-26T00:57:36.929Z,971.31
2017-11-26T00:58:36.921Z,971.33
2017-11-26T00:59:36.911Z,971.32
2017-11-26T01:00:36.902Z,971.32
2017-11-26T01:01:36.892Z,971.38
2017-11-26T01:02:36.884Z,971.38
2017-11-26T01:03:36.873Z,971.33
2017-11-26T01:04:36.870Z,971.38
2017-11-26T01:05:36.855Z,971.43
2017-11-26T01:06:36.845Z,971.4
2017-11-26T01:07:36.836Z,971.43
2017-11-26T01:08:36.827Z,971.43
2017-11-26T01:09:36.817Z,971.42
2017-11-26T01:10:36.809Z,971.44
2017-11-26T01:11:36.798Z,971.42
2017-11-26T01:12:36.789Z,971.44
2017-11-26T01:13:36.782Z,971.42
2017-11-26T01:14:36.770Z,971.52
2017-11-26T01:15:36.761Z,971.51
2017-11-26T01:16:36.751Z,971.52
2017-11-26T01:17:36.742Z,971.5
2017-11-26T01:18:36.831Z,971.53
2017-11-26T01:19:36.724Z,971.57
2017-11-26T01:20:36.714Z,971.6
2017-11-26T01:21:36.704Z,971.62
2017-11-26T01:22:36.697Z,971.63
2017-11-26T01:23:36.685Z,971.67
2017-11-26T01:24:36.677Z,971.7
2017-11-26T01:25:36.666Z,971.74
2017-11-26T01:26:36.664Z,971.8
2017-11-26T01:27:36.648Z,971.79
2017-11-26T01:28:36.740Z,971.79
2017-11-26T01:29:36.629Z,971.82
2017-11-26T01:30:36.621Z,971.76
2017-11-26T01:31:36.712Z,971.79
2017-11-26T01:32:36.602Z,971.82
2017-11-26T01:33:36.591Z,971.79
2017-11-26T01:34:36.583Z,971.79
2017-11-26T01:35:36.573Z,971.8
2017-11-26T01:36:36.563Z,971.79
2017-11-26T01:37:36.554Z,971.75
2017-11-26T01:38:36.545Z,971.77
2017-11-26T01:39:36.535Z,971.8
2017-11-26T01:40:36.526Z,971.86
2017-11-26T01:41:36.524Z,971.88
2017-11-26T01:42:36.508Z,971.89
2017-11-26T01:43:36.497Z,971.92
2017-11-26T01:44:36.489Z,971.87
2017-11-26T01:45:36.480Z,971.88
2017-11-26T01:46:36.470Z,971.88
2017-11-26T01:47:36.460Z,971.88
2017-11-26T01:48:36.451Z,971.88
2017-11-26T01:49:36.442Z,971.89
2017-11-26T01:50:36.434Z,971.9
2017-11-26T01:51:36.424Z,971.92
2017-11-26T01:52:36.415Z,971.89
2017-11-26T01:53:36.404Z,971.92
2017-11-26T01:54:36.395Z,971.97
2017-11-26T01:55:36.387Z,971.98
2017-11-26T01:56:36.378Z,972.01
2017-11-26T01:57:36.472Z,972.02
2017-11-26T01:58:36.368Z,972.07
2017-11-26T01:59:36.350Z,972.05
2017-11-26T02:00:36.340Z,972.09
2017-11-26T02:01:36.335Z,972.13
2017-11-26T02:02:36.322Z,972.14
2017-11-26T02:03:36.311Z,972.13
2017-11-26T02:04:36.304Z,972.15
2017-11-26T02:05:36.293Z,972.17
2017-11-26T02:06:36.283Z,972.19
2017-11-26T02:07:36.274Z,972.2
2017-11-26T02:08:36.264Z,972.18
2017-11-26T02:09:36.254Z,972.22
2017-11-26T02:10:36.245Z,972.19
2017-11-26T02:11:36.235Z,972.23
2017-11-26T02:12:36.227Z,972.2
2017-11-26T02:13:36.317Z,972.21
2017-11-26T02:14:36.212Z,972.22
2017-11-26T02:15:36.199Z,972.23
2017-11-26T02:16:36.187Z,972.26
2017-11-26T02:17:36.177Z,972.23
2017-11-26T02:18:36.169Z,972.21
2017-11-26T02:19:36.161Z,972.27
2017-11-26T02:20:36.154Z,972.3
2017-11-26T02:21:36.144Z,972.31
2017-11-26T02:22:36.131Z,972.32
2017-11-26T02:23:36.121Z,972.32
2017-11-26T02:24:36.116Z,972.33
2017-11-26T02:25:36.101Z,972.35
2017-11-26T02:26:36.093Z,972.36
2017-11-26T02:27:36.082Z,972.43
2017-11-26T02:28:36.074Z,972.4
2017-11-26T02:29:36.066Z,972.4
2017-11-26T02:30:36.057Z,972.43
2017-11-26T02:31:36.070Z,972.45
2017-11-26T02:32:36.035Z,972.45
2017-11-26T02:33:36.027Z,972.47
2017-11-26T02:34:36.016Z,972.45
2017-11-26T02:35:36.006Z,972.46
2017-11-26T02:36:35.999Z,972.53
2017-11-26T02:37:35.988Z,972.54
2017-11-26T02:38:35.977Z,972.55
2017-11-26T02:39:35.968Z,972.57
2017-11-26T02:40:35.960Z,972.61
2017-11-26T02:41:35.951Z,972.63
2017-11-26T02:42:35.942Z,972.62
2017-11-26T02:43:35.931Z,972.64
2017-11-26T02:44:35.924Z,972.63
2017-11-26T02:45:35.955Z,972.66
2017-11-26T02:46:35.902Z,972.7
2017-11-26T02:47:35.891Z,972.7
2017-11-26T02:48:35.882Z,972.71
2017-11-26T02:49:35.872Z,972.71
2017-11-26T02:50:35.965Z,972.72
2017-11-26T02:51:35.854Z,972.77
2017-11-26T02:52:35.845Z,972.77
2017-11-26T02:53:35.850Z,972.78
2017-11-26T02:54:35.825Z,972.8
2017-11-26T02:55:35.815Z,972.83
2017-11-26T02:56:35.806Z,972.9
2017-11-26T02:57:35.796Z,972.87
2017-11-26T02:58:35.787Z,972.89
2017-11-26T02:59:35.785Z,972.92
2017-11-26T03:00:35.767Z,972.96
2017-11-26T03:01:35.757Z,972.98
2017-11-26T03:02:35.754Z,973.03
2017-11-26T03:03:35.739Z,973.01
2017-11-26T03:04:35.729Z,972.98
2017-11-26T03:05:35.720Z,973
2017-11-26T03:06:35.809Z,973.06
2017-11-26T03:07:35.701Z,973.03
2017-11-26T03:08:35.693Z,973.09
2017-11-26T03:09:35.687Z,973.05
2017-11-26T03:10:35.672Z,973.08
2017-11-26T03:11:35.662Z,973.1
2017-11-26T03:12:35.653Z,973.13
2017-11-26T03:13:35.643Z,973.13
2017-11-26T03:14:35.635Z,973.13
2017-11-26T03:15:35.623Z,973.13
2017-11-26T03:16:35.615Z,973.21
2017-11-26T03:17:35.607Z,973.25
2017-11-26T03:18:35.597Z,973.21
2017-11-26T03:19:35.586Z,973.28
2017-11-26T03:20:35.577Z,973.25
2017-11-26T03:21:35.568Z,973.33
2017-11-26T03:22:35.563Z,973.36
2017-11-26T03:23:35.548Z,973.38
2017-11-26T03:24:35.538Z,973.39
2017-11-26T03:25:35.529Z,973.38
2017-11-26T03:26:35.519Z,973.41
2017-11-26T03:27:35.510Z,973.43
2017-11-26T03:28:35.501Z,973.43
2017-11-26T03:29:35.492Z,973.44
2017-11-26T03:30:35.484Z,973.45
2017-11-26T03:31:35.473Z,973.43
2017-11-26T03:32:35.464Z,973.43
2017-11-26T03:33:35.454Z,973.41
2017-11-26T03:34:35.444Z,973.44
2017-11-26T03:35:35.435Z,973.47
2017-11-26T03:36:35.426Z,973.48
2017-11-26T03:37:35.418Z,973.48
2017-11-26T03:38:35.420Z,973.5
2017-11-26T03:39:35.397Z,973.5
2017-11-26T03:40:35.388Z,973.54
2017-11-26T03:41:35.379Z,973.52
2017-11-26T03:42:35.469Z,973.52
2017-11-26T03:43:35.388Z,973.52
2017-11-26T03:44:35.349Z,973.48
2017-11-26T03:45:35.339Z,973.53
2017-11-26T03:46:35.330Z,973.54
2017-11-26T03:47:35.333Z,973.57
2017-11-26T03:48:35.311Z,973.6
2017-11-26T03:49:35.301Z,973.62
2017-11-26T03:50:35.293Z,973.65
2017-11-26T03:51:35.282Z,973.67
2017-11-26T03:52:35.274Z,973.66
2017-11-26T03:53:35.263Z,973.69
2017-11-26T03:54:35.256Z,973.67
2017-11-26T03:55:35.246Z,973.7
2017-11-26T03:56:35.236Z,973.68
2017-11-26T03:57:35.227Z,973.68
2017-11-26T03:58:35.216Z,973.68
2017-11-26T03:59:35.206Z,973.7
2017-11-26T04:00:35.205Z,973.69
2017-11-26T04:01:35.189Z,973.68
2017-11-26T04:02:35.179Z,973.7
2017-11-26T04:03:35.169Z,973.71
2017-11-26T04:04:35.159Z,973.73
2017-11-26T04:05:35.150Z,973.75
2017-11-26T04:06:35.141Z,973.74
2017-11-26T04:07:35.131Z,973.73
2017-11-26T04:08:35.121Z,973.75
2017-11-26T04:09:35.113Z,973.78
2017-11-26T04:10:35.102Z,973.76
2017-11-26T04:11:35.094Z,973.77
2017-11-26T04:12:35.085Z,973.81
2017-11-26T04:13:35.075Z,973.83
2017-11-26T04:14:35.065Z,973.82
2017-11-26T04:15:35.056Z,973.81
2017-11-26T04:16:35.047Z,973.8
2017-11-26T04:17:35.037Z,973.79
2017-11-26T04:18:35.029Z,973.8
2017-11-26T04:19:35.018Z,973.77
2017-11-26T04:20:35.008Z,973.76
2017-11-26T04:21:35.042Z,973.72
2017-11-26T04:22:34.990Z,973.68
2017-11-26T04:23:34.981Z,973.66
2017-11-26T04:24:34.970Z,973.64
2017-11-26T04:25:34.960Z,973.6
2017-11-26T04:26:34.951Z,973.58
2017-11-26T04:27:34.943Z,973.55
2017-11-26T04:28:34.933Z,973.52
2017-11-26T04:29:34.922Z,973.54
2017-11-26T04:30:34.913Z,973.53
2017-11-26T04:31:34.905Z,973.55
2017-11-26T04:32:34.895Z,973.55
2017-11-26T04:33:34.984Z,973.53
2017-11-26T04:34:34.877Z,973.57
2017-11-26T04:35:34.864Z,973.57
2017-11-26T04:36:34.856Z,973.59
2017-11-26T04:37:34.846Z,973.54
2017-11-26T04:38:34.838Z,973.56
2017-11-26T04:39:34.827Z,973.54
2017-11-26T04:40:34.818Z,973.52
2017-11-26T04:41:34.810Z,973.55
2017-11-26T04:42:34.799Z,973.54
2017-11-26T04:43:34.789Z,973.55
2017-11-26T04:44:34.780Z,973.58
2017-11-26T04:45:34.771Z,973.6
2017-11-26T04:46:34.760Z,973.6
2017-11-26T04:47:34.751Z,973.66
2017-11-26T04:48:34.743Z,973.68
2017-11-26T04:49:34.733Z,973.66
2017-11-26T04:50:34.722Z,973.71
2017-11-26T04:51:34.714Z,973.69
2017-11-26T04:52:34.703Z,973.75
2017-11-26T04:53:34.695Z,973.77
2017-11-26T04:54:34.691Z,973.78
2017-11-26T04:55:34.675Z,973.8
2017-11-26T04:56:34.675Z,973.77
2017-11-26T04:57:34.655Z,973.78
2017-11-26T04:58:34.654Z,973.78
2017-11-26T04:59:34.641Z,973.79
2017-11-26T05:00:34.629Z,973.83
2017-11-26T05:01:34.620Z,973.81
2017-11-26T05:02:34.609Z,973.87
2017-11-26T05:03:34.600Z,973.84
2017-11-26T05:04:34.590Z,973.81
2017-11-26T05:05:34.581Z,973.83
2017-11-26T05:06:34.572Z,973.81
2017-11-26T05:07:34.562Z,973.78
2017-11-26T05:08:34.552Z,973.77
2017-11-26T05:09:34.544Z,973.79
2017-11-26T05:10:34.533Z,973.76
2017-11-26T05:11:34.523Z,973.76
2017-11-26T05:12:34.513Z,973.79
2017-11-26T05:13:34.504Z,973.76
2017-11-26T05:14:34.495Z,973.76
2017-11-26T05:15:34.487Z,973.75
2017-11-26T05:16:34.474Z,973.77
2017-11-26T05:17:34.466Z,973.73
2017-11-26T05:18:34.458Z,973.75
2017-11-26T05:19:34.444Z,973.74
2017-11-26T05:20:34.537Z,973.74
2017-11-26T05:21:34.427Z,973.75
2017-11-26T05:22:34.419Z,973.76
2017-11-26T05:23:34.408Z,973.8
2017-11-26T05:24:34.413Z,973.82
2017-11-26T05:25:34.388Z,973.83
2017-11-26T05:26:34.378Z,973.85
2017-11-26T05:27:34.369Z,973.81
2017-11-26T05:28:34.360Z,973.78
2017-11-26T05:29:34.350Z,973.82
2017-11-26T05:30:34.342Z,973.84
2017-11-26T05:31:34.331Z,973.84
2017-11-26T05:32:34.323Z,973.88
2017-11-26T05:33:34.312Z,973.9
2017-11-26T05:34:34.306Z,973.91
2017-11-26T05:35:34.294Z,973.89
2017-11-26T05:36:34.284Z,973.9
2017-11-26T05:37:34.273Z,973.86
2017-11-26T05:38:34.263Z,973.87
2017-11-26T05:39:34.263Z,973.89
2017-11-26T05:40:34.245Z,973.9
2017-11-26T05:41:34.234Z,973.92
2017-11-26T05:42:34.234Z,973.89
2017-11-26T05:43:34.216Z,973.95
2017-11-26T05:44:34.206Z,973.93
2017-11-26T05:45:34.197Z,973.91
2017-11-26T05:46:34.187Z,973.95
2017-11-26T05:47:34.177Z,973.93
2017-11-26T05:48:34.168Z,973.97
2017-11-26T05:49:34.160Z,974
2017-11-26T05:50:34.148Z,974.01
2017-11-26T05:51:34.139Z,974.01
2017-11-26T05:52:34.131Z,974.01
2017-11-26T05:53:34.120Z,974.01
2017-11-26T05:54:34.111Z,974.05
2017-11-26T05:55:34.101Z,974.03
2017-11-26T05:56:34.091Z,974.08
2017-11-26T05:57:34.081Z,974.06
2017-11-26T05:58:34.072Z,974.09
2017-11-26T05:59:34.061Z,974.1
2017-11-26T06:00:34.053Z,974.12
2017-11-26T06:01:34.042Z,974.08
2017-11-26T06:02:34.034Z,974.06
2017-11-26T06:03:34.023Z,974.07
2017-11-26T06:04:34.013Z,974.05
2017-11-26T06:05:34.007Z,974.05
2017-11-26T06:06:34.000Z,974.08
2017-11-26T06:07:33.987Z,974.08
2017-11-26T06:08:33.975Z,974.07
2017-11-26T06:09:33.966Z,974.12
2017-11-26T06:10:33.956Z,974.12
2017-11-26T06:11:33.946Z,974.16
2017-11-26T06:12:34.038Z,974.16
2017-11-26T06:13:34.027Z,974.17
2017-11-26T06:14:33.917Z,974.13
2017-11-26T06:15:33.907Z,974.14
2017-11-26T06:16:33.898Z,974.16
2017-11-26T06:17:33.890Z,974.13
2017-11-26T06:18:33.879Z,974.21
2017-11-26T06:19:33.870Z,974.18
2017-11-26T06:20:33.862Z,974.16
2017-11-26T06:21:33.851Z,974.2
2017-11-26T06:22:33.841Z,974.24
2017-11-26T06:23:33.832Z,974.24
2017-11-26T06:24:33.822Z,974.23
2017-11-26T06:25:33.812Z,974.25
2017-11-26T06:26:33.802Z,974.23
2017-11-26T06:27:33.793Z,974.21
2017-11-26T06:28:33.784Z,974.26
2017-11-26T06:29:33.774Z,974.28
2017-11-26T06:30:33.766Z,974.23
2017-11-26T06:31:33.755Z,974.27
2017-11-26T06:32:33.746Z,974.29
2017-11-26T06:33:33.736Z,974.3
2017-11-26T06:34:33.727Z,974.29
2017-11-26T06:35:33.716Z,974.24
2017-11-26T06:36:33.707Z,974.26
2017-11-26T06:37:33.718Z,974.22
2017-11-26T06:38:33.787Z,974.22
2017-11-26T06:39:33.680Z,974.23
2017-11-26T06:40:33.669Z,974.21
2017-11-26T06:41:33.668Z,974.2
2017-11-26T06:42:33.674Z,974.25
2017-11-26T06:43:33.741Z,974.25
2017-11-26T06:44:33.631Z,974.25
2017-11-26T06:45:33.622Z,974.3
2017-11-26T06:46:33.612Z,974.29
2017-11-26T06:47:33.602Z,974.32
2017-11-26T06:48:33.694Z,974.31
2017-11-26T06:49:33.585Z,974.37
2017-11-26T06:50:33.573Z,974.39
2017-11-26T06:51:33.563Z,974.4
2017-11-26T06:52:33.554Z,974.36
2017-11-26T06:53:33.546Z,974.39
2017-11-26T06:54:33.539Z,974.38
2017-11-26T06:55:33.525Z,974.37
2017-11-26T06:56:33.517Z,974.42
2017-11-26T06:57:33.507Z,974.47
2017-11-26T06:58:33.496Z,974.45
2017-11-26T06:59:33.488Z,974.43
2017-11-26T07:00:33.478Z,974.44
2017-11-26T07:01:33.467Z,974.5
2017-11-26T07:02:33.459Z,974.54
2017-11-26T07:03:33.455Z,974.51
2017-11-26T07:04:33.440Z,974.58
2017-11-26T07:05:33.430Z,974.58
2017-11-26T07:06:33.420Z,974.61
2017-11-26T07:07:33.410Z,974.61
2017-11-26T07:08:33.401Z,974.62
2017-11-26T07:09:33.392Z,974.6
2017-11-26T07:10:33.382Z,974.66
2017-11-26T07:11:33.373Z,974.65
2017-11-26T07:12:33.361Z,974.7
2017-11-26T07:13:33.354Z,974.72
2017-11-26T07:14:33.345Z,974.74
2017-11-26T07:15:33.335Z,974.74
2017-11-26T07:16:33.325Z,974.7
2017-11-26T07:17:33.315Z,974.67
2017-11-26T07:18:33.305Z,974.65
2017-11-26T07:19:33.295Z,974.62
2017-11-26T07:20:33.288Z,974.62
2017-11-26T07:21:33.277Z,974.66
2017-11-26T07:22:33.269Z,974.64
2017-11-26T07:23:33.256Z,974.63
2017-11-26T07:24:33.251Z,974.63
2017-11-26T07:25:33.239Z,974.67
2017-11-26T07:26:33.229Z,974.68
2017-11-26T07:27:33.219Z,974.68
2017-11-26T07:28:33.210Z,974.7
2017-11-26T07:29:33.202Z,974.67
2017-11-26T07:30:33.190Z,974.65
2017-11-26T07:31:33.181Z,974.7
2017-11-26T07:32:33.172Z,974.71
2017-11-26T07:33:33.163Z,974.74
2017-11-26T07:34:33.152Z,974.74
2017-11-26T07:35:33.143Z,974.76
2017-11-26T07:36:33.134Z,974.76
2017-11-26T07:37:33.124Z,974.74
2017-11-26T07:38:33.114Z,974.73
2017-11-26T07:39:33.104Z,974.74
2017-11-26T07:40:33.095Z,974.73
2017-11-26T07:41:33.085Z,974.73
2017-11-26T07:42:33.075Z,974.72
2017-11-26T07:43:33.067Z,974.7
2017-11-26T07:44:33.057Z,974.72
2017-11-26T07:45:33.066Z,974.75
2017-11-26T07:46:33.037Z,974.72
2017-11-26T07:47:33.033Z,974.77
2017-11-26T07:48:33.021Z,974.78
2017-11-26T07:49:33.009Z,974.78
2017-11-26T07:50:33.001Z,974.79
2017-11-26T07:51:32.990Z,974.79
2017-11-26T07:52:32.982Z,974.83
2017-11-26T07:53:32.974Z,974.84
2017-11-26T07:54:32.961Z,974.85
2017-11-26T07:55:32.953Z,974.88
2017-11-26T07:56:32.942Z,974.86
2017-11-26T07:57:32.933Z,974.88
2017-11-26T07:58:32.925Z,974.86
2017-11-26T07:59:32.915Z,974.87
2017-11-26T08:00:32.904Z,974.85
2017-11-26T08:01:32.898Z,974.86
2017-11-26T08:02:32.886Z,974.91
2017-11-26T08:03:32.881Z,974.89
2017-11-26T08:04:32.866Z,974.88
2017-11-26T08:05:32.858Z,974.89
2017-11-26T08:06:32.847Z,974.87
2017-11-26T08:07:32.837Z,974.88
2017-11-26T08:08:32.828Z,974.84
2017-11-26T08:09:32.820Z,974.87
2017-11-26T08:10:32.810Z,974.85
2017-11-26T08:11:32.801Z,974.87
2017-11-26T08:12:32.791Z,974.88
2017-11-26T08:13:32.782Z,974.84
2017-11-26T08:14:32.772Z,974.88
2017-11-26T08:15:32.762Z,974.87
2017-11-26T08:16:32.760Z,974.9
2017-11-26T08:17:32.744Z,974.9
2017-11-26T08:18:32.835Z,974.91
2017-11-26T08:19:32.726Z,974.93
2017-11-26T08:20:32.716Z,974.92
2017-11-26T08:21:32.806Z,974.95
2017-11-26T08:22:32.696Z,974.95
2017-11-26T08:23:32.694Z,974.95
2017-11-26T08:24:32.677Z,974.95
2017-11-26T08:25:32.670Z,974.94
2017-11-26T08:26:32.664Z,974.98
2017-11-26T08:27:32.749Z,974.98
2017-11-26T08:28:32.640Z,974.96
2017-11-26T08:29:32.629Z,974.99
2017-11-26T08:30:32.621Z,974.96
2017-11-26T08:31:32.611Z,974.93
2017-11-26T08:32:32.603Z,974.93
2017-11-26T08:33:32.592Z,974.94
2017-11-26T08:34:32.591Z,974.98
2017-11-26T08:35:32.582Z,974.94
2017-11-26T08:36:32.564Z,974.96
2017-11-26T08:37:32.553Z,974.96
2017-11-26T08:38:32.545Z,974.99
2017-11-26T08:39:32.536Z,975
2017-11-26T08:40:32.525Z,974.96
2017-11-26T08:41:32.516Z,974.96
2017-11-26T08:42:32.508Z,974.96
2017-11-26T08:43:32.497Z,975.02
2017-11-26T08:44:32.487Z,975.03
2017-11-26T08:45:32.580Z,975.06
2017-11-26T08:46:32.470Z,975.04
2017-11-26T08:47:32.460Z,975.08
2017-11-26T08:48:32.449Z,975.05
2017-11-26T08:49:32.440Z,975.07
2017-11-26T08:50:32.432Z,975.07
2017-11-26T08:51:32.422Z,975.08
2017-11-26T08:52:32.412Z,975.07
2017-11-26T08:53:32.403Z,975.08
2017-11-26T08:54:32.394Z,975.09
2017-11-26T08:55:32.384Z,975.07
2017-11-26T08:56:32.374Z,975.09
2017-11-26T08:57:32.366Z,975.1
2017-11-26T08:58:32.355Z,975.1
2017-11-26T08:59:32.350Z,975.14
2017-11-26T09:00:32.337Z,975.15
2017-11-26T09:01:32.329Z,975.12
2017-11-26T09:02:32.319Z,975.11
2017-11-26T09:03:32.308Z,975.11
2017-11-26T09:04:32.299Z,975.16
2017-11-26T09:05:32.290Z,975.17
2017-11-26T09:06:32.280Z,975.12
2017-11-26T09:07:32.271Z,975.17
2017-11-26T09:08:32.261Z,975.15
2017-11-26T09:09:32.251Z,975.16
2017-11-26T09:10:32.243Z,975.15
2017-11-26T09:11:32.233Z,975.12
2017-11-26T09:12:32.224Z,975.12
2017-11-26T09:13:32.213Z,975.14
2017-11-26T09:14:32.206Z,975.13
2017-11-26T09:15:32.196Z,975.12
2017-11-26T09:16:32.188Z,975.13
2017-11-26T09:17:32.175Z,975.16
2017-11-26T09:18:32.168Z,975.14
2017-11-26T09:19:32.158Z,975.17
2017-11-26T09:20:32.147Z,975.15
2017-11-26T09:21:32.139Z,975.17
2017-11-26T09:22:32.129Z,975.16
2017-11-26T09:23:32.120Z,975.15
2017-11-26T09:24:32.109Z,975.1
2017-11-26T09:25:32.106Z,975.12
2017-11-26T09:26:32.101Z,975.13
2017-11-26T09:27:32.083Z,975.17
2017-11-26T09:28:32.072Z,975.19
2017-11-26T09:29:32.065Z,975.19
2017-11-26T09:30:32.055Z,975.19
2017-11-26T09:31:32.144Z,975.16
2017-11-26T09:32:32.037Z,975.19
2017-11-26T09:33:32.026Z,975.22
2017-11-26T09:34:32.017Z,975.2
2017-11-26T09:35:32.008Z,975.21
2017-11-26T09:36:31.998Z,975.14
2017-11-26T09:37:31.989Z,975.15
2017-11-26T09:38:31.980Z,975.17
2017-11-26T09:39:31.970Z,975.14
2017-11-26T09:40:31.960Z,975.21
2017-11-26T09:41:31.951Z,975.21
2017-11-26T09:42:31.948Z,975.26
2017-11-26T09:43:31.940Z,975.28
2017-11-26T09:44:31.925Z,975.28
2017-11-26T09:45:31.914Z,975.29
2017-11-26T09:46:31.904Z,975.24
2017-11-26T09:47:31.996Z,975.25
2017-11-26T09:48:31.886Z,975.23
2017-11-26T09:49:31.878Z,975.24
2017-11-26T09:50:31.869Z,975.29
2017-11-26T09:51:31.858Z,975.28
2017-11-26T09:52:31.950Z,975.29
2017-11-26T09:53:31.840Z,975.29
2017-11-26T09:54:31.832Z,975.31
2017-11-26T09:55:31.822Z,975.33
2017-11-26T09:56:31.812Z,975.34
2017-11-26T09:57:31.805Z,975.32
2017-11-26T09:58:31.793Z,975.32
2017-11-26T09:59:31.784Z,975.32
2017-11-26T10:00:31.775Z,975.31
2017-11-26T10:01:31.765Z,975.34
2017-11-26T10:02:31.761Z,975.27
2017-11-26T10:03:31.747Z,975.3
2017-11-26T10:04:31.737Z,975.25
2017-11-26T10:05:31.729Z,975.26
2017-11-26T10:06:31.719Z,975.27
2017-11-26T10:07:31.709Z,975.25
2017-11-26T10:08:31.700Z,975.21
2017-11-26T10:09:31.691Z,975.22
2017-11-26T10:10:31.689Z,975.25
2017-11-26T10:11:31.671Z,975.25
2017-11-26T10:12:31.663Z,975.23
2017-11-26T10:13:31.653Z,975.22
2017-11-26T10:14:31.645Z,975.19
2017-11-26T10:15:31.635Z,975.2
2017-11-26T10:16:31.627Z,975.16
2017-11-26T10:17:31.616Z,975.13
2017-11-26T10:18:31.607Z,975.13
2017-11-26T10:19:31.598Z,975.13
2017-11-26T10:20:31.588Z,975.06
2017-11-26T10:21:31.580Z,975.03
2017-11-26T10:22:31.573Z,975.02
2017-11-26T10:23:31.560Z,975.04
2017-11-26T10:24:31.551Z,975
2017-11-26T10:25:31.543Z,975
2017-11-26T10:26:31.532Z,975
2017-11-26T10:27:31.530Z,974.97
2017-11-26T10:28:31.514Z,974.99
2017-11-26T10:29:31.506Z,975.02
2017-11-26T10:30:31.495Z,975.01
2017-11-26T10:31:31.486Z,974.99
2017-11-26T10:32:31.478Z,974.99
2017-11-26T10:33:31.467Z,974.95
2017-11-26T10:34:31.463Z,974.97
2017-11-26T10:35:31.473Z,974.96
2017-11-26T10:36:31.440Z,974.96
2017-11-26T10:37:31.429Z,974.98
2017-11-26T10:38:31.421Z,975
2017-11-26T10:39:31.512Z,974.97
2017-11-26T10:40:31.401Z,974.97
2017-11-26T10:41:31.392Z,974.96
2017-11-26T10:42:31.383Z,974.96
2017-11-26T10:43:31.374Z,974.98
2017-11-26T10:44:31.365Z,974.91
2017-11-26T10:45:31.368Z,974.91
2017-11-26T10:46:31.345Z,974.95
2017-11-26T10:47:31.338Z,975.01
2017-11-26T10:48:31.435Z,974.95
2017-11-26T10:49:31.317Z,974.93
2017-11-26T10:50:31.309Z,974.95
2017-11-26T10:51:31.300Z,974.93
2017-11-26T10:52:31.289Z,974.92
2017-11-26T10:53:31.281Z,974.92
2017-11-26T10:54:31.272Z,974.95
2017-11-26T10:55:31.261Z,974.89
2017-11-26T10:56:31.252Z,974.91
2017-11-26T10:57:31.262Z,974.9
2017-11-26T10:58:31.238Z,974.9
2017-11-26T10:59:31.226Z,974.95
2017-11-26T11:00:31.215Z,974.92
2017-11-26T11:01:31.205Z,974.9
2017-11-26T11:02:31.196Z,974.88
2017-11-26T11:03:31.185Z,974.91
2017-11-26T11:04:31.178Z,974.86
2017-11-26T11:05:31.167Z,974.91
2017-11-26T11:06:31.155Z,974.85
2017-11-26T11:07:31.148Z,974.85
2017-11-26T11:08:31.150Z,974.9
2017-11-26T11:09:31.130Z,974.86
2017-11-26T11:10:31.120Z,974.87
2017-11-26T11:11:31.112Z,974.87
2017-11-26T11:12:31.101Z,974.92
2017-11-26T11:13:31.095Z,974.87
2017-11-26T11:14:31.080Z,974.88
2017-11-26T11:15:31.073Z,974.89
2017-11-26T11:16:31.063Z,974.88
2017-11-26T11:17:31.052Z,974.86
2017-11-26T11:18:31.044Z,974.87
2017-11-26T11:19:31.037Z,974.89
2017-11-26T11:20:31.025Z,974.88
2017-11-26T11:21:31.016Z,974.88
2017-11-26T11:22:31.006Z,974.88
2017-11-26T11:23:30.996Z,974.92
2017-11-26T11:24:30.987Z,974.92
2017-11-26T11:25:30.978Z,974.9
2017-11-26T11:26:30.969Z,974.93
2017-11-26T11:27:30.959Z,974.91
2017-11-26T11:28:30.956Z,974.93
2017-11-26T11:29:30.939Z,974.92
2017-11-26T11:30:30.931Z,974.92
2017-11-26T11:31:30.921Z,974.95
2017-11-26T11:32:30.910Z,974.91
2017-11-26T11:33:30.905Z,974.95
2017-11-26T11:34:30.893Z,974.93
2017-11-26T11:35:30.883Z,975
2017-11-26T11:36:30.873Z,974.91
2017-11-26T11:37:30.863Z,974.93
2017-11-26T11:38:30.854Z,974.92
2017-11-26T11:39:30.843Z,974.89
2017-11-26T11:40:30.834Z,974.93
2017-11-26T11:41:30.825Z,974.92
2017-11-26T11:42:30.815Z,974.89
2017-11-26T11:43:30.911Z,974.94
2017-11-26T11:44:30.795Z,974.91
2017-11-26T11:45:30.787Z,974.95
2017-11-26T11:46:30.778Z,974.92
2017-11-26T11:47:30.866Z,974.96
2017-11-26T11:48:30.777Z,975.01
2017-11-26T11:49:30.748Z,974.98
2017-11-26T11:50:30.740Z,974.99
2017-11-26T11:51:30.728Z,975.02
2017-11-26T11:52:30.721Z,975.02
2017-11-26T11:53:30.728Z,975.01
2017-11-26T11:54:30.801Z,974.97
2017-11-26T11:55:30.692Z,974.95
2017-11-26T11:56:30.680Z,974.93
2017-11-26T11:57:30.671Z,974.96
2017-11-26T11:58:30.663Z,974.92
2017-11-26T11:59:30.652Z,974.95
2017-11-26T12:00:30.642Z,974.92
2017-11-26T12:01:30.632Z,974.91
2017-11-26T12:02:30.623Z,974.88
2017-11-26T12:03:30.613Z,974.9
2017-11-26T12:04:30.604Z,974.89
2017-11-26T12:05:30.595Z,974.91
2017-11-26T12:06:30.584Z,974.91
2017-11-26T12:07:30.575Z,974.92
2017-11-26T12:08:30.564Z,974.93
2017-11-26T12:09:30.557Z,974.91
2017-11-26T12:10:30.545Z,974.9
2017-11-26T12:11:30.535Z,974.89
2017-11-26T12:12:30.526Z,974.94
2017-11-26T12:13:30.515Z,974.93
2017-11-26T12:14:30.514Z,974.96
2017-11-26T12:15:30.596Z,974.97
2017-11-26T12:16:30.485Z,974.97
2017-11-26T12:17:30.482Z,974.98
2017-11-26T12:18:30.468Z,974.97
2017-11-26T12:19:30.460Z,974.98
2017-11-26T12:20:30.447Z,975.01
2017-11-26T12:21:30.439Z,975.01
2017-11-26T12:22:30.429Z,975
2017-11-26T12:23:30.418Z,975.04
2017-11-26T12:24:30.408Z,975.02
2017-11-26T12:25:30.399Z,975.05
2017-11-26T12:26:30.390Z,975.05
2017-11-26T12:27:30.378Z,975.04
2017-11-26T12:28:30.369Z,975.03
2017-11-26T12:29:30.359Z,975.02
2017-11-26T12:30:30.351Z,975.02
2017-11-26T12:31:30.339Z,975